sensor_id;sensor_type;location;lat;lon;timestamp;P1;durP1;ratioP1;P2;durP2;ratioP2
57297;SDS011;43147;50.972;18.210;2023-05-09T00:01:21;20.40;;;10.10;;
57297;SDS011;43147;50.972;18.210;2023-05-09T00:03:47;15.40;;;9.10;;
57297;SDS011;43147;50.972;18.210;2023-05-09T00:06:15;17.60;;;9.50;;
57297;SDS011;43147;50.972;18.210;2023-05-09T00:08:41;19.10;;;9.30;;
57297;SDS011;43147;50.972;18.210;2023-05-09T00:11:07;18.90;;;8.90;;
57297;SDS011;43147;50.972;18.210;2023-05-09T00:13:32;14.70;;;9.00;;
57297;SDS011;43147;50.972;18.210;2023-05-09T00:15:59;17.90;;;9.50;;
57297;SDS011;43147;50.972;18.210;2023-05-09T00:18:25;14.50;;;9.40;;
57297;SDS011;43147;50.972;18.210;2023-05-09T00:20:52;24.80;;;10.20;;
57297;SDS011;43147;50.972;18.210;2023-05-09T00:23:18;24.80;;;11.10;;
57297;SDS011;43147;50.972;18.210;2023-05-09T00:25:43;21.30;;;10.50;;
57297;SDS011;43147;50.972;18.210;2023-05-09T00:28:09;19.00;;;10.70;;
57297;SDS011;43147;50.972;18.210;2023-05-09T00:30:35;23.10;;;11.20;;
57297;SDS011;43147;50.972;18.210;2023-05-09T00:33:00;19.40;;;9.80;;
57297;SDS011;43147;50.972;18.210;2023-05-09T00:35:26;25.10;;;10.60;;
57297;SDS011;43147;50.972;18.210;2023-05-09T00:37:51;18.90;;;9.90;;
57297;SDS011;43147;50.972;18.210;2023-05-09T00:40:17;21.20;;;9.20;;
57297;SDS011;43147;50.972;18.210;2023-05-09T00:42:42;23.80;;;10.50;;
57297;SDS011;43147;50.972;18.210;2023-05-09T00:45:11;18.20;;;9.80;;
57297;SDS011;43147;50.972;18.210;2023-05-09T00:47:36;23.60;;;10.00;;
57297;SDS011;43147;50.972;18.210;2023-05-09T00:50:02;23.00;;;11.30;;
57297;SDS011;43147;50.972;18.210;2023-05-09T00:52:28;16.70;;;10.40;;
57297;SDS011;43147;50.972;18.210;2023-05-09T00:54:54;23.20;;;11.50;;
57297;SDS011;43147;50.972;18.210;2023-05-09T00:57:20;22.50;;;10.30;;
57297;SDS011;43147;50.972;18.210;2023-05-09T00:59:47;21.70;;;10.70;;
57297;SDS011;43147;50.972;18.210;2023-05-09T01:02:14;28.50;;;12.50;;
57297;SDS011;43147;50.972;18.210;2023-05-09T01:04:41;21.60;;;10.60;;
57297;SDS011;43147;50.972;18.210;2023-05-09T01:12:40;21.80;;;10.50;;
57297;SDS011;43147;50.972;18.210;2023-05-09T01:17:58;22.70;;;11.10;;
57297;SDS011;43147;50.972;18.210;2023-05-09T01:23:07;22.60;;;10.00;;
57297;SDS011;43147;50.972;18.210;2023-05-09T01:31:21;21.90;;;11.50;;
57297;SDS011;43147;50.972;18.210;2023-05-09T01:33:51;23.70;;;10.20;;
57297;SDS011;43147;50.972;18.210;2023-05-09T01:36:19;15.90;;;10.50;;
57297;SDS011;43147;50.972;18.210;2023-05-09T01:38:47;24.70;;;11.90;;
57297;SDS011;43147;50.972;18.210;2023-05-09T01:41:14;30.80;;;13.70;;
57297;SDS011;43147;50.972;18.210;2023-05-09T01:43:42;26.50;;;13.30;;
57297;SDS011;43147;50.972;18.210;2023-05-09T01:46:10;24.30;;;11.80;;
57297;SDS011;43147;50.972;18.210;2023-05-09T01:48:36;25.40;;;12.90;;
57297;SDS011;43147;50.972;18.210;2023-05-09T01:51:02;25.80;;;11.30;;
57297;SDS011;43147;50.972;18.210;2023-05-09T01:53:29;21.90;;;10.80;;
57297;SDS011;43147;50.972;18.210;2023-05-09T01:55:55;23.70;;;10.90;;
57297;SDS011;43147;50.972;18.210;2023-05-09T01:58:22;20.10;;;10.80;;
57297;SDS011;43147;50.972;18.210;2023-05-09T02:00:50;19.60;;;10.10;;
57297;SDS011;43147;50.972;18.210;2023-05-09T02:03:16;22.10;;;10.40;;
57297;SDS011;43147;50.972;18.210;2023-05-09T02:05:41;27.50;;;11.40;;
57297;SDS011;43147;50.972;18.210;2023-05-09T02:08:08;20.10;;;11.00;;
57297;SDS011;43147;50.972;18.210;2023-05-09T02:10:35;22.40;;;10.30;;
57297;SDS011;43147;50.972;18.210;2023-05-09T02:13:02;20.30;;;11.60;;
57297;SDS011;43147;50.972;18.210;2023-05-09T02:15:28;20.20;;;10.80;;
57297;SDS011;43147;50.972;18.210;2023-05-09T02:17:53;26.10;;;12.90;;
57297;SDS011;43147;50.972;18.210;2023-05-09T02:20:19;28.70;;;12.70;;
57297;SDS011;43147;50.972;18.210;2023-05-09T02:22:45;22.40;;;11.40;;
57297;SDS011;43147;50.972;18.210;2023-05-09T02:25:11;24.10;;;12.60;;
57297;SDS011;43147;50.972;18.210;2023-05-09T02:27:39;29.90;;;12.30;;
57297;SDS011;43147;50.972;18.210;2023-05-09T02:30:07;25.80;;;12.00;;
57297;SDS011;43147;50.972;18.210;2023-05-09T02:32:34;21.70;;;11.30;;
57297;SDS011;43147;50.972;18.210;2023-05-09T02:35:01;22.90;;;10.80;;
57297;SDS011;43147;50.972;18.210;2023-05-09T02:37:28;23.60;;;11.50;;
57297;SDS011;43147;50.972;18.210;2023-05-09T02:39:54;28.00;;;12.80;;
57297;SDS011;43147;50.972;18.210;2023-05-09T02:42:22;24.10;;;12.90;;
57297;SDS011;43147;50.972;18.210;2023-05-09T02:44:50;24.30;;;13.60;;
57297;SDS011;43147;50.972;18.210;2023-05-09T02:47:16;20.80;;;12.60;;
57297;SDS011;43147;50.972;18.210;2023-05-09T02:49:42;31.70;;;12.00;;
57297;SDS011;43147;50.972;18.210;2023-05-09T02:52:07;26.90;;;13.70;;
57297;SDS011;43147;50.972;18.210;2023-05-09T02:54:33;31.60;;;12.30;;
57297;SDS011;43147;50.972;18.210;2023-05-09T02:56:59;23.40;;;14.10;;
57297;SDS011;43147;50.972;18.210;2023-05-09T02:59:25;22.30;;;11.90;;
57297;SDS011;43147;50.972;18.210;2023-05-09T03:01:53;25.00;;;13.80;;
57297;SDS011;43147;50.972;18.210;2023-05-09T03:04:18;21.50;;;13.10;;
57297;SDS011;43147;50.972;18.210;2023-05-09T03:06:44;23.90;;;13.10;;
57297;SDS011;43147;50.972;18.210;2023-05-09T03:09:10;21.10;;;12.50;;
57297;SDS011;43147;50.972;18.210;2023-05-09T03:11:35;27.60;;;13.10;;
57297;SDS011;43147;50.972;18.210;2023-05-09T03:14:02;29.10;;;14.80;;
57297;SDS011;43147;50.972;18.210;2023-05-09T03:16:28;25.70;;;14.10;;
57297;SDS011;43147;50.972;18.210;2023-05-09T03:18:54;27.70;;;14.30;;
57297;SDS011;43147;50.972;18.210;2023-05-09T03:21:19;26.20;;;14.10;;
57297;SDS011;43147;50.972;18.210;2023-05-09T03:23:45;28.00;;;13.30;;
57297;SDS011;43147;50.972;18.210;2023-05-09T03:26:11;25.00;;;14.10;;
57297;SDS011;43147;50.972;18.210;2023-05-09T03:28:37;26.90;;;14.10;;
57297;SDS011;43147;50.972;18.210;2023-05-09T03:31:03;23.50;;;13.20;;
57297;SDS011;43147;50.972;18.210;2023-05-09T03:33:32;23.30;;;12.00;;
57297;SDS011;43147;50.972;18.210;2023-05-09T03:35:57;30.30;;;13.30;;
57297;SDS011;43147;50.972;18.210;2023-05-09T03:38:23;28.40;;;13.20;;
57297;SDS011;43147;50.972;18.210;2023-05-09T03:40:49;26.30;;;13.00;;
57297;SDS011;43147;50.972;18.210;2023-05-09T03:43:15;27.40;;;14.20;;
57297;SDS011;43147;50.972;18.210;2023-05-09T03:45:41;25.10;;;12.70;;
57297;SDS011;43147;50.972;18.210;2023-05-09T03:48:07;23.90;;;12.70;;
57297;SDS011;43147;50.972;18.210;2023-05-09T03:50:34;26.10;;;15.40;;
57297;SDS011;43147;50.972;18.210;2023-05-09T03:53:00;28.30;;;13.90;;
57297;SDS011;43147;50.972;18.210;2023-05-09T03:55:26;28.60;;;13.90;;
57297;SDS011;43147;50.972;18.210;2023-05-09T03:57:52;27.80;;;15.10;;
57297;SDS011;43147;50.972;18.210;2023-05-09T04:00:18;28.70;;;15.30;;
57297;SDS011;43147;50.972;18.210;2023-05-09T04:02:45;27.60;;;14.30;;
57297;SDS011;43147;50.972;18.210;2023-05-09T04:05:11;25.50;;;14.10;;
57297;SDS011;43147;50.972;18.210;2023-05-09T04:07:37;34.00;;;14.00;;
57297;SDS011;43147;50.972;18.210;2023-05-09T04:10:03;28.10;;;13.40;;
57297;SDS011;43147;50.972;18.210;2023-05-09T04:12:29;20.80;;;12.70;;
57297;SDS011;43147;50.972;18.210;2023-05-09T04:14:54;25.80;;;12.20;;
57297;SDS011;43147;50.972;18.210;2023-05-09T04:17:20;21.30;;;12.10;;
57297;SDS011;43147;50.972;18.210;2023-05-09T04:19:47;19.30;;;12.10;;
57297;SDS011;43147;50.972;18.210;2023-05-09T04:22:12;22.50;;;12.10;;
57297;SDS011;43147;50.972;18.210;2023-05-09T04:24:38;27.80;;;11.70;;
57297;SDS011;43147;50.972;18.210;2023-05-09T04:27:03;18.50;;;11.90;;
57297;SDS011;43147;50.972;18.210;2023-05-09T04:29:29;23.40;;;11.20;;
57297;SDS011;43147;50.972;18.210;2023-05-09T04:31:57;21.50;;;11.40;;
57297;SDS011;43147;50.972;18.210;2023-05-09T04:34:25;22.90;;;12.20;;
57297;SDS011;43147;50.972;18.210;2023-05-09T04:36:52;20.80;;;11.10;;
57297;SDS011;43147;50.972;18.210;2023-05-09T04:39:18;18.10;;;10.80;;
57297;SDS011;43147;50.972;18.210;2023-05-09T04:41:44;23.90;;;11.50;;
57297;SDS011;43147;50.972;18.210;2023-05-09T04:44:12;16.20;;;10.10;;
57297;SDS011;43147;50.972;18.210;2023-05-09T04:46:38;22.30;;;11.10;;
57297;SDS011;43147;50.972;18.210;2023-05-09T04:49:04;16.00;;;9.90;;
57297;SDS011;43147;50.972;18.210;2023-05-09T04:51:30;16.80;;;9.10;;
57297;SDS011;43147;50.972;18.210;2023-05-09T04:53:56;18.80;;;9.70;;
57297;SDS011;43147;50.972;18.210;2023-05-09T04:56:22;14.20;;;7.50;;
57297;SDS011;43147;50.972;18.210;2023-05-09T04:58:47;14.80;;;8.30;;
57297;SDS011;43147;50.972;18.210;2023-05-09T05:01:13;12.20;;;8.10;;
57297;SDS011;43147;50.972;18.210;2023-05-09T05:03:40;15.80;;;7.80;;
57297;SDS011;43147;50.972;18.210;2023-05-09T05:06:05;15.40;;;7.70;;
57297;SDS011;43147;50.972;18.210;2023-05-09T05:08:31;13.30;;;8.00;;
57297;SDS011;43147;50.972;18.210;2023-05-09T05:10:56;16.50;;;8.10;;
57297;SDS011;43147;50.972;18.210;2023-05-09T05:13:22;14.30;;;8.20;;
57297;SDS011;43147;50.972;18.210;2023-05-09T05:15:48;12.70;;;9.00;;
57297;SDS011;43147;50.972;18.210;2023-05-09T05:18:14;15.60;;;10.00;;
57297;SDS011;43147;50.972;18.210;2023-05-09T05:20:41;10.70;;;8.10;;
57297;SDS011;43147;50.972;18.210;2023-05-09T05:23:07;12.60;;;7.60;;
57297;SDS011;43147;50.972;18.210;2023-05-09T05:25:33;12.40;;;8.00;;
57297;SDS011;43147;50.972;18.210;2023-05-09T05:27:59;10.80;;;7.10;;
57297;SDS011;43147;50.972;18.210;2023-05-09T05:30:25;8.00;;;6.70;;
57297;SDS011;43147;50.972;18.210;2023-05-09T05:32:50;9.30;;;6.70;;
57297;SDS011;43147;50.972;18.210;2023-05-09T05:35:16;9.50;;;5.90;;
57297;SDS011;43147;50.972;18.210;2023-05-09T05:37:41;6.30;;;5.50;;
57297;SDS011;43147;50.972;18.210;2023-05-09T05:40:09;8.20;;;5.30;;
57297;SDS011;43147;50.972;18.210;2023-05-09T05:42:34;7.40;;;5.50;;
57297;SDS011;43147;50.972;18.210;2023-05-09T05:45:00;10.70;;;4.90;;
57297;SDS011;43147;50.972;18.210;2023-05-09T05:47:30;6.90;;;4.40;;
57297;SDS011;43147;50.972;18.210;2023-05-09T05:49:59;5.10;;;4.30;;
57297;SDS011;43147;50.972;18.210;2023-05-09T05:52:25;7.60;;;4.70;;
57297;SDS011;43147;50.972;18.210;2023-05-09T05:54:51;6.80;;;4.80;;
57297;SDS011;43147;50.972;18.210;2023-05-09T05:57:18;6.70;;;4.00;;
57297;SDS011;43147;50.972;18.210;2023-05-09T05:59:45;5.80;;;4.10;;
57297;SDS011;43147;50.972;18.210;2023-05-09T06:02:13;4.80;;;3.50;;
57297;SDS011;43147;50.972;18.210;2023-05-09T06:04:39;4.50;;;3.50;;
57297;SDS011;43147;50.972;18.210;2023-05-09T06:07:05;5.30;;;3.50;;
57297;SDS011;43147;50.972;18.210;2023-05-09T06:09:31;5.00;;;3.60;;
57297;SDS011;43147;50.972;18.210;2023-05-09T06:11:57;5.50;;;3.50;;
57297;SDS011;43147;50.972;18.210;2023-05-09T06:14:22;9.60;;;3.70;;
57297;SDS011;43147;50.972;18.210;2023-05-09T06:16:48;6.00;;;3.40;;
57297;SDS011;43147;50.972;18.210;2023-05-09T06:19:13;5.00;;;3.40;;
57297;SDS011;43147;50.972;18.210;2023-05-09T06:21:39;6.20;;;3.70;;
57297;SDS011;43147;50.972;18.210;2023-05-09T06:24:04;4.90;;;3.30;;
57297;SDS011;43147;50.972;18.210;2023-05-09T06:26:30;5.40;;;3.60;;
57297;SDS011;43147;50.972;18.210;2023-05-09T06:28:56;3.30;;;3.00;;
57297;SDS011;43147;50.972;18.210;2023-05-09T06:31:22;3.60;;;3.00;;
57297;SDS011;43147;50.972;18.210;2023-05-09T06:33:47;4.10;;;3.30;;
57297;SDS011;43147;50.972;18.210;2023-05-09T06:36:13;7.70;;;2.90;;
57297;SDS011;43147;50.972;18.210;2023-05-09T06:38:38;7.60;;;3.60;;
57297;SDS011;43147;50.972;18.210;2023-05-09T06:41:04;4.40;;;3.60;;
57297;SDS011;43147;50.972;18.210;2023-05-09T06:43:30;3.70;;;3.20;;
57297;SDS011;43147;50.972;18.210;2023-05-09T06:45:55;10.50;;;3.30;;
57297;SDS011;43147;50.972;18.210;2023-05-09T06:48:21;4.20;;;3.30;;
57297;SDS011;43147;50.972;18.210;2023-05-09T06:50:48;5.60;;;3.40;;
57297;SDS011;43147;50.972;18.210;2023-05-09T06:53:14;5.50;;;3.80;;
57297;SDS011;43147;50.972;18.210;2023-05-09T06:55:40;4.60;;;4.10;;
57297;SDS011;43147;50.972;18.210;2023-05-09T06:58:06;4.90;;;3.50;;
57297;SDS011;43147;50.972;18.210;2023-05-09T07:00:32;4.90;;;3.60;;
57297;SDS011;43147;50.972;18.210;2023-05-09T07:02:57;6.80;;;3.20;;
57297;SDS011;43147;50.972;18.210;2023-05-09T07:05:23;3.70;;;3.20;;
57297;SDS011;43147;50.972;18.210;2023-05-09T07:07:49;5.60;;;3.20;;
57297;SDS011;43147;50.972;18.210;2023-05-09T07:10:15;9.10;;;3.40;;
57297;SDS011;43147;50.972;18.210;2023-05-09T07:12:41;3.90;;;3.40;;
57297;SDS011;43147;50.972;18.210;2023-05-09T07:15:09;6.70;;;3.30;;
57297;SDS011;43147;50.972;18.210;2023-05-09T07:17:35;4.80;;;3.30;;
57297;SDS011;43147;50.972;18.210;2023-05-09T07:20:00;4.10;;;3.70;;
57297;SDS011;43147;50.972;18.210;2023-05-09T07:22:28;9.90;;;3.40;;
57297;SDS011;43147;50.972;18.210;2023-05-09T07:24:53;9.80;;;3.60;;
57297;SDS011;43147;50.972;18.210;2023-05-09T07:27:19;5.70;;;4.00;;
57297;SDS011;43147;50.972;18.210;2023-05-09T07:29:44;4.70;;;3.90;;
57297;SDS011;43147;50.972;18.210;2023-05-09T07:32:10;10.70;;;3.50;;
57297;SDS011;43147;50.972;18.210;2023-05-09T07:34:35;7.40;;;3.90;;
57297;SDS011;43147;50.972;18.210;2023-05-09T07:37:01;4.90;;;3.90;;
57297;SDS011;43147;50.972;18.210;2023-05-09T07:39:26;9.80;;;3.70;;
57297;SDS011;43147;50.972;18.210;2023-05-09T07:41:52;8.70;;;3.70;;
57297;SDS011;43147;50.972;18.210;2023-05-09T07:44:17;5.30;;;3.70;;
57297;SDS011;43147;50.972;18.210;2023-05-09T07:46:43;7.30;;;3.80;;
57297;SDS011;43147;50.972;18.210;2023-05-09T07:49:08;6.50;;;3.60;;
57297;SDS011;43147;50.972;18.210;2023-05-09T07:51:34;4.40;;;3.80;;
57297;SDS011;43147;50.972;18.210;2023-05-09T07:54:00;4.60;;;3.80;;
57297;SDS011;43147;50.972;18.210;2023-05-09T07:56:26;4.10;;;3.70;;
57297;SDS011;43147;50.972;18.210;2023-05-09T07:58:51;7.30;;;3.40;;
57297;SDS011;43147;50.972;18.210;2023-05-09T08:01:17;7.70;;;3.40;;
57297;SDS011;43147;50.972;18.210;2023-05-09T08:03:42;4.90;;;3.30;;
57297;SDS011;43147;50.972;18.210;2023-05-09T08:06:08;3.20;;;2.90;;
57297;SDS011;43147;50.972;18.210;2023-05-09T08:08:34;5.00;;;3.30;;
57297;SDS011;43147;50.972;18.210;2023-05-09T08:11:00;5.50;;;2.70;;
57297;SDS011;43147;50.972;18.210;2023-05-09T08:13:25;5.90;;;3.30;;
57297;SDS011;43147;50.972;18.210;2023-05-09T08:15:51;5.20;;;2.50;;
57297;SDS011;43147;50.972;18.210;2023-05-09T08:18:16;6.80;;;3.50;;
57297;SDS011;43147;50.972;18.210;2023-05-09T08:20:42;4.60;;;3.30;;
57297;SDS011;43147;50.972;18.210;2023-05-09T08:23:08;5.80;;;2.90;;
57297;SDS011;43147;50.972;18.210;2023-05-09T08:25:33;8.40;;;3.70;;
57297;SDS011;43147;50.972;18.210;2023-05-09T08:28:01;9.00;;;3.50;;
57297;SDS011;43147;50.972;18.210;2023-05-09T08:30:27;4.60;;;3.30;;
57297;SDS011;43147;50.972;18.210;2023-05-09T08:32:54;7.50;;;3.70;;
57297;SDS011;43147;50.972;18.210;2023-05-09T08:35:20;5.80;;;3.60;;
57297;SDS011;43147;50.972;18.210;2023-05-09T08:37:46;8.70;;;4.00;;
57297;SDS011;43147;50.972;18.210;2023-05-09T08:40:15;4.40;;;3.90;;
57297;SDS011;43147;50.972;18.210;2023-05-09T08:42:41;9.10;;;3.50;;
57297;SDS011;43147;50.972;18.210;2023-05-09T08:45:11;5.80;;;3.20;;
57297;SDS011;43147;50.972;18.210;2023-05-09T08:47:40;6.90;;;4.00;;
57297;SDS011;43147;50.972;18.210;2023-05-09T08:50:07;6.20;;;3.60;;
57297;SDS011;43147;50.972;18.210;2023-05-09T08:52:33;13.70;;;4.20;;
57297;SDS011;43147;50.972;18.210;2023-05-09T08:55:00;8.80;;;3.70;;
57297;SDS011;43147;50.972;18.210;2023-05-09T08:57:26;7.70;;;3.70;;
57297;SDS011;43147;50.972;18.210;2023-05-09T08:59:52;7.80;;;4.00;;
57297;SDS011;43147;50.972;18.210;2023-05-09T09:02:18;44.90;;;5.50;;
57297;SDS011;43147;50.972;18.210;2023-05-09T09:04:43;5.70;;;3.20;;
57297;SDS011;43147;50.972;18.210;2023-05-09T09:07:09;8.60;;;4.10;;
57297;SDS011;43147;50.972;18.210;2023-05-09T09:09:36;6.60;;;3.70;;
57297;SDS011;43147;50.972;18.210;2023-05-09T09:12:05;5.00;;;3.50;;
57297;SDS011;43147;50.972;18.210;2023-05-09T09:14:40;5.60;;;3.70;;
57297;SDS011;43147;50.972;18.210;2023-05-09T09:17:07;9.30;;;3.80;;
57297;SDS011;43147;50.972;18.210;2023-05-09T09:19:34;7.20;;;3.50;;
57297;SDS011;43147;50.972;18.210;2023-05-09T09:22:02;4.80;;;3.50;;
57297;SDS011;43147;50.972;18.210;2023-05-09T09:24:29;9.30;;;3.80;;
57297;SDS011;43147;50.972;18.210;2023-05-09T09:26:55;12.20;;;4.20;;
57297;SDS011;43147;50.972;18.210;2023-05-09T09:29:21;9.30;;;5.10;;
57297;SDS011;43147;50.972;18.210;2023-05-09T09:31:51;8.70;;;4.20;;
57297;SDS011;43147;50.972;18.210;2023-05-09T09:34:20;7.70;;;3.60;;
57297;SDS011;43147;50.972;18.210;2023-05-09T09:36:47;12.40;;;3.40;;
57297;SDS011;43147;50.972;18.210;2023-05-09T09:39:13;7.50;;;3.10;;
57297;SDS011;43147;50.972;18.210;2023-05-09T09:41:39;4.20;;;2.80;;
57297;SDS011;43147;50.972;18.210;2023-05-09T09:44:08;10.30;;;3.60;;
57297;SDS011;43147;50.972;18.210;2023-05-09T09:46:48;6.30;;;2.90;;
57297;SDS011;43147;50.972;18.210;2023-05-09T09:49:15;6.80;;;3.10;;
57297;SDS011;43147;50.972;18.210;2023-05-09T09:51:48;6.80;;;3.30;;
57297;SDS011;43147;50.972;18.210;2023-05-09T09:54:15;6.80;;;3.10;;
57297;SDS011;43147;50.972;18.210;2023-05-09T09:56:42;6.50;;;2.40;;
57297;SDS011;43147;50.972;18.210;2023-05-09T09:59:16;4.90;;;2.50;;
57297;SDS011;43147;50.972;18.210;2023-05-09T10:04:23;6.30;;;2.30;;
57297;SDS011;43147;50.972;18.210;2023-05-09T10:06:50;5.10;;;2.20;;
57297;SDS011;43147;50.972;18.210;2023-05-09T10:09:19;4.10;;;2.10;;
57297;SDS011;43147;50.972;18.210;2023-05-09T10:11:46;5.40;;;2.50;;
57297;SDS011;43147;50.972;18.210;2023-05-09T10:14:13;17.10;;;2.30;;
57297;SDS011;43147;50.972;18.210;2023-05-09T10:16:40;4.50;;;1.90;;
57297;SDS011;43147;50.972;18.210;2023-05-09T10:19:06;4.60;;;1.90;;
57297;SDS011;43147;50.972;18.210;2023-05-09T10:21:33;4.40;;;2.10;;
57297;SDS011;43147;50.972;18.210;2023-05-09T10:23:59;5.10;;;2.00;;
57297;SDS011;43147;50.972;18.210;2023-05-09T10:26:26;10.80;;;2.20;;
57297;SDS011;43147;50.972;18.210;2023-05-09T10:28:56;8.00;;;2.30;;
57297;SDS011;43147;50.972;18.210;2023-05-09T10:31:25;4.20;;;1.80;;
57297;SDS011;43147;50.972;18.210;2023-05-09T10:33:52;6.60;;;2.10;;
57297;SDS011;43147;50.972;18.210;2023-05-09T10:36:19;2.90;;;1.60;;
57297;SDS011;43147;50.972;18.210;2023-05-09T10:38:46;7.90;;;2.20;;
57297;SDS011;43147;50.972;18.210;2023-05-09T10:41:13;5.50;;;2.20;;
57297;SDS011;43147;50.972;18.210;2023-05-09T10:43:39;8.20;;;2.10;;
57297;SDS011;43147;50.972;18.210;2023-05-09T10:46:05;5.80;;;1.80;;
57297;SDS011;43147;50.972;18.210;2023-05-09T10:48:31;9.50;;;1.70;;
57297;SDS011;43147;50.972;18.210;2023-05-09T10:51:01;6.20;;;2.00;;
57297;SDS011;43147;50.972;18.210;2023-05-09T10:53:43;6.90;;;1.70;;
57297;SDS011;43147;50.972;18.210;2023-05-09T10:58:48;10.60;;;2.00;;
57297;SDS011;43147;50.972;18.210;2023-05-09T11:01:13;4.00;;;1.90;;
57297;SDS011;43147;50.972;18.210;2023-05-09T11:03:57;8.40;;;2.10;;
57297;SDS011;43147;50.972;18.210;2023-05-09T11:09:26;2.50;;;1.60;;
57297;SDS011;43147;50.972;18.210;2023-05-09T11:11:59;5.60;;;1.80;;
57297;SDS011;43147;50.972;18.210;2023-05-09T11:14:28;6.10;;;1.80;;
57297;SDS011;43147;50.972;18.210;2023-05-09T11:17:04;7.10;;;2.10;;
57297;SDS011;43147;50.972;18.210;2023-05-09T11:22:18;5.60;;;2.70;;
57297;SDS011;43147;50.972;18.210;2023-05-09T11:24:58;4.90;;;2.00;;
57297;SDS011;43147;50.972;18.210;2023-05-09T11:27:41;7.70;;;1.80;;
57297;SDS011;43147;50.972;18.210;2023-05-09T11:30:10;4.40;;;2.10;;
57297;SDS011;43147;50.972;18.210;2023-05-09T11:32:43;2.40;;;1.70;;
57297;SDS011;43147;50.972;18.210;2023-05-09T11:35:11;5.10;;;1.90;;
57297;SDS011;43147;50.972;18.210;2023-05-09T11:40:26;2.10;;;1.90;;
57297;SDS011;43147;50.972;18.210;2023-05-09T11:42:53;4.70;;;2.10;;
57297;SDS011;43147;50.972;18.210;2023-05-09T11:45:20;4.80;;;1.70;;
57297;SDS011;43147;50.972;18.210;2023-05-09T11:47:47;7.20;;;2.10;;
57297;SDS011;43147;50.972;18.210;2023-05-09T11:50:14;12.60;;;1.90;;
57297;SDS011;43147;50.972;18.210;2023-05-09T11:52:41;4.60;;;2.40;;
57297;SDS011;43147;50.972;18.210;2023-05-09T11:57:39;5.40;;;2.40;;
57297;SDS011;43147;50.972;18.210;2023-05-09T12:00:06;3.40;;;2.40;;
57297;SDS011;43147;50.972;18.210;2023-05-09T12:02:33;4.80;;;2.00;;
57297;SDS011;43147;50.972;18.210;2023-05-09T12:05:06;5.10;;;1.90;;
57297;SDS011;43147;50.972;18.210;2023-05-09T12:07:35;2.30;;;2.00;;
57297;SDS011;43147;50.972;18.210;2023-05-09T12:10:14;4.20;;;1.90;;
57297;SDS011;43147;50.972;18.210;2023-05-09T12:12:50;23.30;;;3.90;;
57297;SDS011;43147;50.972;18.210;2023-05-09T12:15:17;6.00;;;2.40;;
57297;SDS011;43147;50.972;18.210;2023-05-09T12:17:44;2.80;;;2.10;;
57297;SDS011;43147;50.972;18.210;2023-05-09T12:20:10;4.70;;;2.40;;
57297;SDS011;43147;50.972;18.210;2023-05-09T12:22:37;3.50;;;2.50;;
57297;SDS011;43147;50.972;18.210;2023-05-09T12:25:06;4.70;;;2.70;;
57297;SDS011;43147;50.972;18.210;2023-05-09T12:27:34;5.30;;;2.50;;
57297;SDS011;43147;50.972;18.210;2023-05-09T12:30:00;3.90;;;2.60;;
57297;SDS011;43147;50.972;18.210;2023-05-09T12:32:32;3.90;;;2.90;;
57297;SDS011;43147;50.972;18.210;2023-05-09T12:34:58;5.20;;;2.90;;
57297;SDS011;43147;50.972;18.210;2023-05-09T12:37:24;3.00;;;2.30;;
57297;SDS011;43147;50.972;18.210;2023-05-09T12:40:09;3.80;;;2.50;;
57297;SDS011;43147;50.972;18.210;2023-05-09T12:42:42;3.70;;;2.50;;
57297;SDS011;43147;50.972;18.210;2023-05-09T12:45:08;3.00;;;2.40;;
57297;SDS011;43147;50.972;18.210;2023-05-09T12:47:34;3.40;;;2.20;;
57297;SDS011;43147;50.972;18.210;2023-05-09T12:50:03;5.40;;;2.70;;
57297;SDS011;43147;50.972;18.210;2023-05-09T12:52:40;7.90;;;3.10;;
57297;SDS011;43147;50.972;18.210;2023-05-09T12:55:13;6.00;;;2.70;;
57297;SDS011;43147;50.972;18.210;2023-05-09T12:57:39;4.30;;;2.90;;
57297;SDS011;43147;50.972;18.210;2023-05-09T13:00:07;8.50;;;2.80;;
57297;SDS011;43147;50.972;18.210;2023-05-09T13:02:38;8.10;;;2.70;;
57297;SDS011;43147;50.972;18.210;2023-05-09T13:05:06;17.90;;;3.90;;
57297;SDS011;43147;50.972;18.210;2023-05-09T13:12:42;4.00;;;2.40;;
57297;SDS011;43147;50.972;18.210;2023-05-09T13:15:10;5.50;;;2.80;;
57297;SDS011;43147;50.972;18.210;2023-05-09T13:17:36;5.00;;;2.30;;
57297;SDS011;43147;50.972;18.210;2023-05-09T13:20:02;8.10;;;3.10;;
57297;SDS011;43147;50.972;18.210;2023-05-09T13:22:31;5.50;;;2.70;;
57297;SDS011;43147;50.972;18.210;2023-05-09T13:24:58;9.50;;;2.60;;
57297;SDS011;43147;50.972;18.210;2023-05-09T13:27:23;5.70;;;2.70;;
57297;SDS011;43147;50.972;18.210;2023-05-09T13:29:49;5.80;;;2.40;;
57297;SDS011;43147;50.972;18.210;2023-05-09T13:32:14;3.80;;;2.70;;
57297;SDS011;43147;50.972;18.210;2023-05-09T13:34:42;8.10;;;2.80;;
57297;SDS011;43147;50.972;18.210;2023-05-09T13:37:08;4.90;;;2.40;;
57297;SDS011;43147;50.972;18.210;2023-05-09T13:39:35;5.80;;;2.90;;
57297;SDS011;43147;50.972;18.210;2023-05-09T13:42:01;7.80;;;3.30;;
57297;SDS011;43147;50.972;18.210;2023-05-09T13:44:28;6.30;;;2.60;;
57297;SDS011;43147;50.972;18.210;2023-05-09T13:46:54;6.90;;;3.70;;
57297;SDS011;43147;50.972;18.210;2023-05-09T13:49:21;5.00;;;2.70;;
57297;SDS011;43147;50.972;18.210;2023-05-09T13:51:47;7.60;;;2.50;;
57297;SDS011;43147;50.972;18.210;2023-05-09T13:54:13;10.40;;;2.80;;
57297;SDS011;43147;50.972;18.210;2023-05-09T13:56:41;2.70;;;2.50;;
57297;SDS011;43147;50.972;18.210;2023-05-09T13:59:08;3.90;;;2.30;;
57297;SDS011;43147;50.972;18.210;2023-05-09T14:01:36;3.50;;;2.50;;
57297;SDS011;43147;50.972;18.210;2023-05-09T14:04:02;5.50;;;2.30;;
57297;SDS011;43147;50.972;18.210;2023-05-09T14:06:27;3.80;;;2.60;;
57297;SDS011;43147;50.972;18.210;2023-05-09T14:08:54;4.10;;;2.50;;
57297;SDS011;43147;50.972;18.210;2023-05-09T14:11:20;4.00;;;2.60;;
57297;SDS011;43147;50.972;18.210;2023-05-09T14:13:46;11.70;;;3.90;;
57297;SDS011;43147;50.972;18.210;2023-05-09T14:16:12;7.30;;;4.20;;
57297;SDS011;43147;50.972;18.210;2023-05-09T14:18:37;4.70;;;2.80;;
57297;SDS011;43147;50.972;18.210;2023-05-09T14:21:03;5.90;;;2.70;;
57297;SDS011;43147;50.972;18.210;2023-05-09T14:23:29;4.30;;;2.50;;
57297;SDS011;43147;50.972;18.210;2023-05-09T14:25:55;7.60;;;2.60;;
57297;SDS011;43147;50.972;18.210;2023-05-09T14:28:21;5.40;;;2.50;;
57297;SDS011;43147;50.972;18.210;2023-05-09T14:30:47;10.60;;;2.70;;
57297;SDS011;43147;50.972;18.210;2023-05-09T14:33:12;4.00;;;2.80;;
57297;SDS011;43147;50.972;18.210;2023-05-09T14:35:41;7.10;;;2.70;;
57297;SDS011;43147;50.972;18.210;2023-05-09T14:38:07;4.10;;;2.40;;
57297;SDS011;43147;50.972;18.210;2023-05-09T14:40:33;3.90;;;2.40;;
57297;SDS011;43147;50.972;18.210;2023-05-09T14:42:58;4.50;;;2.90;;
57297;SDS011;43147;50.972;18.210;2023-05-09T14:45:27;7.30;;;2.90;;
57297;SDS011;43147;50.972;18.210;2023-05-09T14:47:53;3.50;;;2.50;;
57297;SDS011;43147;50.972;18.210;2023-05-09T14:50:19;5.50;;;2.80;;
57297;SDS011;43147;50.972;18.210;2023-05-09T14:52:46;7.80;;;2.70;;
57297;SDS011;43147;50.972;18.210;2023-05-09T14:55:18;6.10;;;3.10;;
57297;SDS011;43147;50.972;18.210;2023-05-09T14:57:45;5.70;;;2.70;;
57297;SDS011;43147;50.972;18.210;2023-05-09T15:00:11;5.80;;;2.60;;
57297;SDS011;43147;50.972;18.210;2023-05-09T15:02:38;4.70;;;2.90;;